Time;durP1;ratioP1;P1;durP2;ratioP2;P2;SDS_P1;SDS_P2;PMS_P1;PMS_P2;Temp;Humidity;BMP_temperature;BMP_pressure;BME280_temperature;BME280_humidity;BME280_pressure;Samples;Min_cycle;Max_cycle;Signal;HPM_P1;HPM_P2
2021/01/25 00:01:04;;;;;;;12.13;11.27;;;2.20;99.90;;;;;;5031204;28;20488;-67
2021/01/25 00:03:31;;;;;;;12.60;11.80;;;2.20;99.90;;;;;;5031525;28;20938;-67
2021/01/25 00:05:58;;;;;;;13.00;11.90;;;2.20;99.90;;;;;;5031556;28;20444;-66
2021/01/25 00:08:24;;;;;;;11.97;11.17;;;2.30;99.90;;;;;;5031531;28;20441;-65
2021/01/25 00:10:50;;;;;;;11.83;10.87;;;2.30;99.90;;;;;;5031126;28;20457;-66
2021/01/25 00:13:17;;;;;;;11.80;10.80;;;2.30;99.90;;;;;;5031497;28;21015;-65
2021/01/25 00:15:43;;;;;;;12.67;11.77;;;2.30;99.90;;;;;;5031498;28;20445;-66
2021/01/25 00:18:09;;;;;;;12.47;11.53;;;2.30;99.90;;;;;;5034494;28;20440;-66
2021/01/25 00:20:36;;;;;;;10.83;10.23;;;2.30;99.90;;;;;;5035151;28;20484;-66
2021/01/25 00:23:03;;;;;;;11.73;11.03;;;2.40;99.90;;;;;;5035519;28;20441;-66
2021/01/25 00:25:29;;;;;;;11.57;10.77;;;2.40;99.90;;;;;;5035469;28;20451;-65
2021/01/25 00:27:55;;;;;;;11.23;10.53;;;2.40;99.90;;;;;;5035335;28;20455;-66
2021/01/25 00:30:22;;;;;;;11.00;10.50;;;2.40;99.90;;;;;;5035071;28;20464;-66
2021/01/25 00:32:49;;;;;;;11.80;11.00;;;2.40;99.90;;;;;;5035355;28;20463;-65
2021/01/25 00:35:15;;;;;;;12.30;11.30;;;2.40;99.90;;;;;;5035495;28;20906;-66
2021/01/25 00:37:42;;;;;;;12.00;11.20;;;2.40;99.90;;;;;;5035241;28;20503;-66
2021/01/25 00:40:10;;;;;;;12.03;11.27;;;2.40;99.90;;;;;;5034762;28;20491;-66
2021/01/25 00:42:36;;;;;;;11.93;10.93;;;2.40;99.90;;;;;;5035041;28;20452;-66
2021/01/25 00:45:09;;;;;;;11.53;10.70;;;2.40;99.90;;;;;;5035151;28;20445;-66
2021/01/25 00:47:36;;;;;;;13.73;12.57;;;2.40;99.90;;;;;;5034987;28;20441;-66
2021/01/25 00:50:03;;;;;;;11.07;10.47;;;2.40;99.90;;;;;;5034692;28;21019;-66
2021/01/25 00:52:30;;;;;;;11.30;10.60;;;2.40;99.90;;;;;;5034900;28;20445;-66
2021/01/25 00:54:56;;;;;;;11.03;10.10;;;2.40;99.90;;;;;;5034878;28;20946;-66
2021/01/25 00:57:23;;;;;;;10.83;10.23;;;2.40;99.90;;;;;;5034922;28;20809;-65
2021/01/25 00:59:49;;;;;;;10.53;9.43;;;2.40;99.90;;;;;;5034425;28;20480;-65
2021/01/25 01:02:15;;;;;;;10.90;10.20;;;2.40;99.90;;;;;;5034813;28;20436;-66
2021/01/25 01:04:42;;;;;;;11.40;10.53;;;2.40;99.90;;;;;;5034743;28;20441;-66
2021/01/25 01:07:08;;;;;;;11.10;10.30;;;2.40;99.90;;;;;;5034775;28;20448;-66
2021/01/25 01:09:34;;;;;;;11.77;10.87;;;2.40;99.90;;;;;;5034377;28;20464;-65
2021/01/25 01:12:00;;;;;;;10.53;9.93;;;2.40;99.90;;;;;;5034686;28;20437;-65
2021/01/25 01:14:28;;;;;;;11.13;10.37;;;2.40;99.90;;;;;;5034626;28;20436;-66
2021/01/25 01:16:54;;;;;;;11.60;10.20;;;2.40;99.90;;;;;;5034500;28;20495;-65
2021/01/25 01:19:20;;;;;;;11.63;10.73;;;2.40;99.90;;;;;;5034375;28;20824;-65
2021/01/25 01:21:46;;;;;;;10.57;9.90;;;2.40;99.90;;;;;;5034157;28;20862;-67
2021/01/25 01:24:15;;;;;;;11.20;10.37;;;2.40;99.90;;;;;;5034450;28;20456;-67
2021/01/25 01:26:42;;;;;;;11.23;10.53;;;2.40;99.90;;;;;;5034380;28;20476;-67
2021/01/25 01:29:08;;;;;;;11.90;11.17;;;2.30;99.90;;;;;;5033947;28;20467;-66
2021/01/25 01:31:35;;;;;;;10.47;9.87;;;2.30;99.90;;;;;;5034107;28;20809;-67
2021/01/25 01:34:01;;;;;;;10.80;10.07;;;2.40;99.90;;;;;;5034391;28;20444;-66
2021/01/25 01:36:28;;;;;;;10.90;10.20;;;2.30;99.90;;;;;;5038447;28;20453;-67
2021/01/25 01:38:54;;;;;;;10.00;9.30;;;2.20;99.90;;;;;;5038568;28;20491;-67
2021/01/25 01:41:20;;;;;;;11.43;10.63;;;2.30;99.90;;;;;;5038835;28;20547;-67
2021/01/25 01:43:47;;;;;;;10.97;10.27;;;2.20;99.90;;;;;;5037829;28;20441;-66
2021/01/25 01:46:14;;;;;;;11.20;10.30;;;2.30;99.90;;;;;;5033961;28;20938;-67
2021/01/25 01:48:41;;;;;;;11.43;10.63;;;2.30;99.90;;;;;;5034085;28;20448;-68
2021/01/25 01:51:07;;;;;;;11.17;10.37;;;2.20;99.90;;;;;;5033642;28;20457;-66
2021/01/25 01:53:34;;;;;;;10.87;10.17;;;2.20;99.90;;;;;;5033779;28;20968;-66
2021/01/25 01:56:00;;;;;;;10.40;9.60;;;2.20;99.90;;;;;;5033737;28;20449;-66
2021/01/25 01:58:28;;;;;;;11.57;10.57;;;2.20;99.90;;;;;;5033718;28;20441;-66
2021/01/25 02:00:55;;;;;;;9.67;9.07;;;2.20;99.90;;;;;;5033275;28;20548;-66
2021/01/25 02:03:21;;;;;;;10.37;9.67;;;2.20;99.90;;;;;;5033669;28;20445;-65
2021/01/25 02:05:49;;;;;;;9.97;9.27;;;2.20;99.90;;;;;;5033529;28;20787;-66
2021/01/25 02:08:16;;;;;;;10.63;9.93;;;2.20;99.90;;;;;;5033432;28;20453;-66
2021/01/25 02:10:43;;;;;;;10.10;9.40;;;2.20;99.90;;;;;;5032956;28;20462;-66
2021/01/25 02:13:09;;;;;;;11.00;10.03;;;2.20;99.90;;;;;;5033444;28;20441;-66
2021/01/25 02:15:36;;;;;;;10.70;9.90;;;2.20;99.90;;;;;;5033576;28;20930;-66
2021/01/25 02:18:03;;;;;;;10.13;9.43;;;2.20;99.90;;;;;;5033445;28;20450;-66
2021/01/25 02:20:32;;;;;;;10.10;9.40;;;2.20;99.90;;;;;;5032989;28;20488;-66
2021/01/25 02:23:24;;;;;;;10.83;10.00;;;2.30;99.90;;;;;;5033251;28;20456;-66
2021/01/25 02:25:56;;;;;;;10.07;9.30;;;2.30;99.90;;;;;;5033208;28;20448;-66
2021/01/25 02:28:23;;;;;;;9.63;9.03;;;2.30;99.90;;;;;;5033260;28;20445;-66
2021/01/25 02:30:50;;;;;;;9.80;8.97;;;2.20;99.90;;;;;;5032837;28;20825;-66
2021/01/25 02:33:17;;;;;;;9.73;8.93;;;2.20;99.90;;;;;;5033348;28;20445;-65
2021/01/25 02:35:44;;;;;;;9.20;8.63;;;2.30;99.90;;;;;;5033155;28;20452;-66
2021/01/25 02:38:14;;;;;;;9.73;9.03;;;2.30;99.90;;;;;;5032982;28;20452;-65
2021/01/25 02:40:42;;;;;;;10.70;10.03;;;2.30;99.90;;;;;;5032025;28;20911;-66
2021/01/25 02:43:10;;;;;;;9.80;9.10;;;2.30;99.90;;;;;;5032876;28;20515;-66
2021/01/25 02:45:38;;;;;;;10.20;9.13;;;2.30;99.90;;;;;;5032837;28;20441;-66
2021/01/25 02:48:05;;;;;;;9.43;8.73;;;2.30;99.90;;;;;;5032932;28;20445;-65
2021/01/25 02:50:32;;;;;;;8.90;8.13;;;2.20;99.90;;;;;;5032302;28;20468;-65
2021/01/25 02:52:58;;;;;;;9.87;9.20;;;2.20;99.90;;;;;;5032706;28;20832;-65
2021/01/25 02:55:24;;;;;;;8.90;8.30;;;2.20;99.90;;;;;;5032664;28;20455;-66
2021/01/25 02:57:51;;;;;;;9.63;8.83;;;2.20;99.90;;;;;;5032437;28;20444;-65
2021/01/25 03:00:19;;;;;;;9.60;9.00;;;2.20;99.90;;;;;;5032199;28;20484;-65
2021/01/25 03:02:47;;;;;;;8.97;8.37;;;2.20;99.90;;;;;;5032625;28;20778;-66
2021/01/25 03:05:13;;;;;;;9.83;9.27;;;2.10;99.90;;;;;;5032479;28;20449;-66
2021/01/25 03:07:40;;;;;;;8.80;8.30;;;2.00;99.90;;;;;;5032399;28;20441;-65
2021/01/25 03:10:07;;;;;;;8.90;8.30;;;2.00;99.90;;;;;;5032063;28;20564;-65
2021/01/25 03:12:34;;;;;;;10.30;9.60;;;1.90;99.90;;;;;;5032276;28;20441;-65
2021/01/25 03:15:00;;;;;;;9.47;8.87;;;1.90;99.90;;;;;;5032288;28;20593;-65
2021/01/25 03:17:27;;;;;;;9.83;9.03;;;1.90;99.90;;;;;;5032222;28;20441;-65
2021/01/25 03:19:54;;;;;;;8.87;8.17;;;1.80;99.90;;;;;;5031923;28;20468;-65
2021/01/25 03:22:20;;;;;;;9.00;8.30;;;1.80;99.90;;;;;;5032054;28;20488;-65
2021/01/25 03:24:46;;;;;;;8.80;8.13;;;1.80;99.90;;;;;;5032106;28;20441;-66
2021/01/25 03:27:12;;;;;;;9.00;8.40;;;1.80;99.90;;;;;;5032033;28;20441;-66
2021/01/25 03:29:39;;;;;;;10.33;9.33;;;1.70;99.90;;;;;;5031881;28;20468;-65
2021/01/25 03:32:05;;;;;;;9.43;8.63;;;1.70;99.90;;;;;;5031887;28;20775;-65
2021/01/25 03:34:32;;;;;;;8.90;8.30;;;1.70;99.90;;;;;;5031917;28;20451;-65
2021/01/25 03:36:59;;;;;;;7.97;7.37;;;1.70;99.90;;;;;;5031990;28;20445;-65
2021/01/25 03:39:25;;;;;;;8.57;7.90;;;1.70;99.90;;;;;;5031829;28;21047;-65
2021/01/25 03:41:52;;;;;;;8.17;7.67;;;1.80;99.90;;;;;;5031481;28;21020;-65
2021/01/25 03:44:18;;;;;;;8.37;7.83;;;1.80;99.90;;;;;;5031812;28;20449;-65
2021/01/25 03:46:46;;;;;;;9.77;8.93;;;1.80;99.90;;;;;;5031781;28;20445;-65
2021/01/25 03:49:14;;;;;;;8.23;7.53;;;1.80;99.90;;;;;;5031776;28;20472;-65
2021/01/25 03:51:40;;;;;;;10.67;9.70;;;1.80;99.90;;;;;;5031459;28;20452;-65
2021/01/25 03:54:09;;;;;;;8.50;7.90;;;1.80;99.90;;;;;;5031764;28;20471;-65
2021/01/25 03:56:35;;;;;;;7.67;7.13;;;1.90;99.90;;;;;;5031677;28;20445;-65
2021/01/25 03:59:02;;;;;;;8.07;7.47;;;1.90;99.90;;;;;;5031392;28;20441;-65
2021/01/25 04:01:28;;;;;;;7.77;7.30;;;2.00;99.90;;;;;;5037320;22;21100;-70
2021/01/25 04:03:54;;;;;;;8.27;7.67;;;2.00;99.90;;;;;;4995174;28;20872;-69
2021/01/25 04:06:20;;;;;;;7.53;7.07;;;2.00;99.90;;;;;;4992176;28;20465;-69
2021/01/25 04:08:47;;;;;;;8.40;7.77;;;2.00;99.90;;;;;;4992173;28;20812;-69
2021/01/25 04:11:15;;;;;;;8.80;8.00;;;2.00;99.90;;;;;;4991892;28;20899;-67
2021/01/25 04:13:41;;;;;;;8.50;7.80;;;2.00;99.90;;;;;;4992284;28;20786;-68
2021/01/25 04:16:08;;;;;;;9.27;8.23;;;2.10;99.90;;;;;;4992211;28;20454;-68
2021/01/25 04:18:34;;;;;;;8.57;7.97;;;2.00;99.90;;;;;;4992177;28;20447;-67
2021/01/25 04:21:00;;;;;;;9.63;8.73;;;2.00;99.90;;;;;;4991622;28;20479;-68
2021/01/25 04:23:27;;;;;;;8.57;7.97;;;2.00;99.90;;;;;;4992260;28;20442;-69
2021/01/25 04:25:53;;;;;;;9.23;8.73;;;2.00;99.90;;;;;;4992012;28;20453;-69
2021/01/25 04:28:20;;;;;;;10.53;9.63;;;2.00;99.90;;;;;;4992057;28;20455;-69
2021/01/25 04:30:46;;;;;;;9.97;9.17;;;2.00;99.90;;;;;;4991874;28;20463;-68
2021/01/25 04:33:12;;;;;;;8.80;8.20;;;2.00;99.90;;;;;;4991913;28;20458;-68
2021/01/25 04:35:41;;;;;;;9.43;8.70;;;2.00;99.90;;;;;;4991924;28;20521;-67
2021/01/25 04:38:07;;;;;;;9.87;9.07;;;2.00;99.90;;;;;;4992036;28;20447;-69
2021/01/25 04:40:34;;;;;;;10.27;9.47;;;2.00;99.90;;;;;;4991534;28;21000;-68
2021/01/25 04:43:01;;;;;;;9.23;8.63;;;2.00;99.90;;;;;;4991766;28;20446;-68
2021/01/25 04:45:28;;;;;;;10.03;9.30;;;2.00;99.90;;;;;;4991911;28;20442;-70
2021/01/25 04:47:56;;;;;;;9.60;8.80;;;2.10;99.90;;;;;;4991741;28;20443;-68
2021/01/25 04:50:23;;;;;;;9.60;8.80;;;2.00;99.90;;;;;;4991664;28;20463;-69
2021/01/25 04:52:49;;;;;;;9.87;9.17;;;2.00;99.90;;;;;;4991763;28;20451;-68
2021/01/25 04:55:16;;;;;;;11.13;10.23;;;2.00;99.90;;;;;;4991673;28;20449;-69
2021/01/25 04:57:43;;;;;;;10.90;10.00;;;2.00;99.90;;;;;;4991834;28;20861;-68
2021/01/25 05:00:11;;;;;;;10.47;9.57;;;2.00;99.90;;;;;;4991402;28;20482;-70
2021/01/25 05:02:39;;;;;;;10.07;9.07;;;2.00;99.90;;;;;;4992144;28;21177;-68
2021/01/25 05:05:08;;;;;;;12.43;11.23;;;2.00;99.90;;;;;;4995452;28;20812;-68
2021/01/25 05:07:34;;;;;;;11.07;10.20;;;1.90;99.90;;;;;;4995287;28;20455;-69
2021/01/25 05:10:03;;;;;;;10.47;9.50;;;1.90;99.90;;;;;;4994900;28;20473;-69
2021/01/25 05:12:41;;;;;;;11.00;10.10;;;1.90;99.90;;;;;;4995124;28;20983;-68
2021/01/25 05:15:09;;;;;;;11.23;10.27;;;1.90;99.90;;;;;;4995207;28;20442;-68
2021/01/25 05:17:37;;;;;;;11.33;10.10;;;1.90;99.90;;;;;;4995054;28;20941;-68
2021/01/25 05:20:08;;;;;;;10.67;9.73;;;2.00;99.90;;;;;;4994804;28;20473;-68
2021/01/25 05:22:38;;;;;;;11.30;10.20;;;2.00;99.90;;;;;;4995144;28;21089;-68
2021/01/25 05:25:07;;;;;;;14.17;12.87;;;2.10;99.90;;;;;;4995428;28;20801;-69
2021/01/25 05:27:34;;;;;;;11.00;9.90;;;2.10;99.90;;;;;;4995074;28;20451;-68
2021/01/25 05:30:08;;;;;;;11.63;10.63;;;2.10;99.90;;;;;;4994585;28;20505;-68
2021/01/25 05:32:45;;;;;;;12.30;11.20;;;2.10;99.90;;;;;;4995050;28;20450;-69
2021/01/25 05:35:12;;;;;;;11.60;10.50;;;2.10;99.90;;;;;;4994729;28;20501;-69
2021/01/25 05:37:41;;;;;;;10.73;9.87;;;2.10;99.90;;;;;;4994814;28;20453;-68
2021/01/25 05:40:13;;;;;;;14.50;13.00;;;2.10;99.90;;;;;;4994370;28;20445;-69
2021/01/25 05:42:41;;;;;;;11.57;10.53;;;2.20;99.90;;;;;;4994509;28;20541;-70
2021/01/25 05:45:11;;;;;;;11.70;10.50;;;2.30;99.90;;;;;;4994588;28;20924;-68
2021/01/25 05:47:50;;;;;;;12.60;11.50;;;2.30;99.90;;;;;;4994481;28;20443;-69
2021/01/25 05:50:35;;;;;;;10.73;9.70;;;2.30;99.90;;;;;;4994247;28;20879;-68
2021/01/25 05:53:04;;;;;;;10.73;9.83;;;2.30;99.90;;;;;;4994621;28;20439;-69
2021/01/25 05:55:31;;;;;;;11.97;10.83;;;2.30;99.90;;;;;;4994402;28;20443;-69
2021/01/25 05:57:58;;;;;;;13.77;11.43;;;2.30;99.90;;;;;;4994377;28;20447;-69
2021/01/25 06:00:25;;;;;;;13.13;11.93;;;2.30;99.90;;;;;;4993986;28;20475;-70
2021/01/25 06:02:54;;;;;;;15.67;14.07;;;2.30;99.90;;;;;;4994303;28;20447;-69
2021/01/25 06:05:35;;;;;;;10.07;9.23;;;2.30;99.90;;;;;;4994357;28;20457;-68
2021/01/25 06:08:06;;;;;;;11.70;10.70;;;2.40;99.90;;;;;;4994185;28;20450;-67
2021/01/25 06:10:38;;;;;;;11.80;10.60;;;2.30;99.90;;;;;;4993902;28;20607;-69
2021/01/25 06:13:14;;;;;;;11.60;10.40;;;2.30;99.90;;;;;;4994318;28;20808;-67
2021/01/25 06:15:41;;;;;;;15.53;13.90;;;2.30;99.90;;;;;;4993152;28;20533;-68
2021/01/25 06:18:10;;;;;;;13.00;11.53;;;2.40;99.90;;;;;;4994229;28;20447;-69
2021/01/25 06:20:38;;;;;;;12.83;11.73;;;2.40;99.90;;;;;;4993648;28;20831;-68
2021/01/25 06:23:04;;;;;;;12.90;11.80;;;2.50;99.90;;;;;;4993927;28;20450;-68
2021/01/25 06:25:31;;;;;;;13.97;11.80;;;2.50;99.90;;;;;;4993964;28;20443;-68
2021/01/25 06:27:58;;;;;;;12.40;11.20;;;2.40;99.90;;;;;;4993819;28;20446;-67
2021/01/25 06:30:26;;;;;;;11.70;10.63;;;2.50;99.90;;;;;;4993655;28;20530;-68
2021/01/25 06:32:53;;;;;;;15.60;14.00;;;2.50;99.90;;;;;;4993689;28;20434;-68
2021/01/25 06:35:21;;;;;;;13.23;11.87;;;2.50;99.90;;;;;;4993612;28;20933;-68
2021/01/25 06:37:54;;;;;;;12.47;11.33;;;2.60;99.90;;;;;;4993672;28;20512;-68
2021/01/25 06:40:24;;;;;;;11.40;10.40;;;2.50;99.90;;;;;;4993340;28;20463;-68
2021/01/25 06:42:53;;;;;;;12.40;11.20;;;2.60;99.90;;;;;;4993700;28;20475;-68
2021/01/25 06:45:24;;;;;;;12.43;11.23;;;2.60;99.90;;;;;;4993494;28;20443;-68
2021/01/25 06:47:50;;;;;;;13.13;11.60;;;2.60;99.90;;;;;;4993454;28;20443;-68
2021/01/25 06:50:18;;;;;;;12.07;11.07;;;2.60;99.90;;;;;;4993021;28;20995;-68
2021/01/25 06:52:48;;;;;;;13.70;12.40;;;2.60;99.90;;;;;;4993462;28;20462;-68
2021/01/25 06:55:14;;;;;;;13.07;11.93;;;2.60;99.90;;;;;;4993348;28;20497;-68
2021/01/25 06:57:41;;;;;;;14.90;12.70;;;2.70;99.90;;;;;;4993311;28;20462;-69
2021/01/25 07:00:09;;;;;;;12.67;11.53;;;2.70;99.90;;;;;;4992778;28;20486;-68
2021/01/25 07:02:51;;;;;;;16.93;12.67;;;2.80;99.90;;;;;;4992999;28;20494;-68
2021/01/25 07:05:21;;;;;;;14.17;10.60;;;2.80;99.90;;;;;;4993020;28;20443;-68
2021/01/25 07:07:48;;;;;;;15.20;13.83;;;2.70;99.90;;;;;;4993278;28;20443;-69
2021/01/25 07:10:16;;;;;;;13.90;12.63;;;2.70;99.90;;;;;;4992594;28;20972;-68
2021/01/25 07:12:43;;;;;;;13.60;12.20;;;2.70;99.90;;;;;;4993083;28;20506;-68
2021/01/25 07:15:11;;;;;;;13.73;12.43;;;2.70;99.90;;;;;;4992874;28;20432;-69
2021/01/25 07:17:38;;;;;;;14.20;12.80;;;2.70;99.90;;;;;;4992878;28;20534;-68
2021/01/25 07:20:05;;;;;;;14.13;12.80;;;2.80;99.90;;;;;;4992685;28;20469;-68
2021/01/25 07:22:35;;;;;;;14.00;12.57;;;2.80;99.90;;;;;;4992824;28;20485;-69
2021/01/25 07:25:04;;;;;;;15.23;13.83;;;2.80;99.90;;;;;;4992827;28;20815;-69
2021/01/25 07:27:34;;;;;;;13.53;12.43;;;2.90;99.90;;;;;;4992452;28;20470;-68
2021/01/25 07:30:01;;;;;;;12.10;10.97;;;2.90;99.90;;;;;;4992384;28;20463;-68
2021/01/25 07:32:27;;;;;;;14.00;12.60;;;2.90;99.90;;;;;;4992703;28;20469;-68
2021/01/25 07:34:56;;;;;;;13.53;12.03;;;2.90;99.90;;;;;;4992648;28;20453;-68
2021/01/25 07:37:22;;;;;;;14.13;12.83;;;2.80;99.90;;;;;;4992654;28;20454;-69
2021/01/25 07:39:48;;;;;;;20.13;11.90;;;2.80;99.90;;;;;;4992350;28;20466;-69
2021/01/25 07:42:15;;;;;;;16.33;14.97;;;2.90;99.90;;;;;;4992271;28;20474;-69
2021/01/25 07:44:43;;;;;;;14.30;12.97;;;2.90;99.90;;;;;;4992542;28;20451;-68
2021/01/25 07:47:09;;;;;;;13.93;12.63;;;2.90;99.90;;;;;;4992495;28;20454;-68
2021/01/25 07:49:36;;;;;;;14.13;12.80;;;2.90;99.90;;;;;;4992362;28;20451;-67
2021/01/25 07:52:02;;;;;;;16.40;14.83;;;3.00;99.90;;;;;;4992464;28;20449;-69
2021/01/25 07:54:30;;;;;;;14.10;12.80;;;3.00;99.90;;;;;;4992294;28;20451;-68
2021/01/25 07:56:59;;;;;;;13.90;12.80;;;3.10;99.90;;;;;;4992241;28;20451;-69
2021/01/25 07:59:32;;;;;;;16.37;14.77;;;3.00;99.90;;;;;;4991913;28;20495;-68
2021/01/25 08:02:02;;;;;;;15.83;14.23;;;3.10;99.90;;;;;;4992046;28;20502;-69
2021/01/25 08:04:31;;;;;;;16.10;14.47;;;3.10;99.90;;;;;;4992239;28;20912;-67
2021/01/25 08:07:00;;;;;;;16.23;14.63;;;3.00;99.90;;;;;;4992222;28;20835;-67
2021/01/25 08:09:27;;;;;;;14.57;13.27;;;3.10;99.90;;;;;;4992131;28;20443;-68
2021/01/25 08:11:54;;;;;;;16.07;14.63;;;3.20;99.90;;;;;;4992076;28;20446;-68
2021/01/25 08:14:26;;;;;;;15.20;13.73;;;3.20;99.90;;;;;;4992094;28;20447;-68
2021/01/25 08:16:58;;;;;;;15.93;14.50;;;3.20;99.90;;;;;;4992331;28;20695;-68
2021/01/25 08:19:31;;;;;;;15.33;13.83;;;3.30;99.90;;;;;;4992042;28;20443;-68
2021/01/25 08:22:03;;;;;;;14.80;13.53;;;3.40;99.90;;;;;;4992131;28;20482;-68
2021/01/25 08:24:29;;;;;;;15.50;14.10;;;3.40;99.90;;;;;;4992051;28;20455;-69
2021/01/25 08:27:05;;;;;;;15.30;14.00;;;3.40;99.90;;;;;;4992037;28;20454;-68
2021/01/25 08:29:32;;;;;;;15.30;13.90;;;3.50;99.90;;;;;;4991838;28;20547;-68
2021/01/25 08:31:58;;;;;;;15.40;14.07;;;3.50;99.90;;;;;;4991886;28;20439;-68
2021/01/25 08:34:28;;;;;;;18.47;14.73;;;3.50;99.90;;;;;;4991956;28;20443;-68
2021/01/25 08:37:07;;;;;;;14.83;13.63;;;3.60;99.90;;;;;;4992095;28;20442;-68
2021/01/25 08:39:39;;;;;;;17.07;15.07;;;3.70;99.90;;;;;;4995270;28;20502;-68
2021/01/25 08:42:12;;;;;;;17.80;15.20;;;3.70;99.90;;;;;;4995658;28;20486;-68
2021/01/25 08:44:44;;;;;;;16.23;14.80;;;3.70;99.90;;;;;;4995687;28;20458;-68
2021/01/25 08:47:10;;;;;;;17.37;15.87;;;3.70;99.90;;;;;;4995849;28;20442;-68
2021/01/25 08:49:38;;;;;;;17.40;15.67;;;3.70;99.90;;;;;;4995432;28;20482;-68
2021/01/25 08:52:07;;;;;;;17.33;15.90;;;3.50;99.90;;;;;;4995805;28;20859;-68
2021/01/25 08:54:36;;;;;;;17.13;15.67;;;3.50;99.90;;;;;;4995613;28;20454;-68
2021/01/25 08:57:13;;;;;;;20.40;16.20;;;3.60;99.90;;;;;;4995637;28;20807;-69
2021/01/25 08:59:39;;;;;;;18.57;15.53;;;3.60;99.90;;;;;;4995065;28;20532;-68
2021/01/25 09:02:13;;;;;;;17.13;15.63;;;3.60;99.90;;;;;;4995557;28;20505;-68
2021/01/25 09:04:39;;;;;;;15.87;14.57;;;3.60;99.90;;;;;;4995420;28;20443;-68
2021/01/25 09:07:12;;;;;;;16.70;15.40;;;3.60;99.90;;;;;;4995500;28;20442;-68
2021/01/25 09:09:39;;;;;;;16.10;14.80;;;3.70;99.90;;;;;;4995086;28;21063;-69
2021/01/25 09:12:06;;;;;;;16.30;15.10;;;3.70;99.90;;;;;;4995249;28;20442;-68
2021/01/25 09:14:33;;;;;;;15.40;14.00;;;3.90;99.90;;;;;;4995268;28;20486;-68
2021/01/25 09:16:59;;;;;;;15.80;14.50;;;3.90;99.90;;;;;;4995180;28;20450;-69
2021/01/25 09:19:26;;;;;;;17.43;16.03;;;3.80;99.90;;;;;;4995232;28;20451;-67
2021/01/25 09:21:53;;;;;;;15.80;14.53;;;3.90;99.90;;;;;;4995179;28;20493;-69
2021/01/25 09:24:19;;;;;;;16.93;15.63;;;4.00;99.90;;;;;;4994846;28;20937;-68
2021/01/25 09:26:45;;;;;;;17.30;15.87;;;4.00;99.90;;;;;;4994939;28;20446;-69
2021/01/25 09:29:11;;;;;;;17.10;15.40;;;4.20;99.90;;;;;;4995003;28;20443;-68
2021/01/25 09:31:38;;;;;;;15.10;14.00;;;4.30;99.90;;;;;;4994420;28;20459;-69
2021/01/25 09:34:04;;;;;;;16.33;14.90;;;4.40;99.90;;;;;;4994846;28;20517;-69
2021/01/25 09:36:32;;;;;;;16.10;14.80;;;4.40;99.90;;;;;;4994935;28;20451;-69
2021/01/25 09:38:59;;;;;;;15.67;14.33;;;4.40;99.90;;;;;;4994906;28;20450;-68
2021/01/25 09:41:25;;;;;;;16.67;15.50;;;4.50;99.90;;;;;;4994313;28;20493;-68
2021/01/25 09:43:51;;;;;;;16.30;15.03;;;4.40;99.90;;;;;;4994658;28;20446;-69
2021/01/25 09:46:17;;;;;;;17.50;16.10;;;4.50;99.90;;;;;;4994564;28;20451;-68
2021/01/25 09:48:44;;;;;;;17.20;15.70;;;4.50;99.90;;;;;;4994338;28;20450;-69
2021/01/25 09:51:10;;;;;;;18.73;17.20;;;4.60;99.90;;;;;;4994254;28;20498;-68
2021/01/25 09:53:37;;;;;;;17.60;16.40;;;4.50;99.90;;;;;;4994420;28;20455;-69
2021/01/25 09:56:04;;;;;;;16.30;15.27;;;4.60;99.90;;;;;;4994572;28;20462;-69
2021/01/25 09:58:32;;;;;;;17.93;16.53;;;4.60;99.90;;;;;;4994235;28;20442;-68
2021/01/25 10:00:58;;;;;;;19.10;17.60;;;4.70;99.90;;;;;;5028256;23;20517;-66
2021/01/25 10:03:24;;;;;;;19.07;16.93;;;4.80;99.90;;;;;;5013897;28;20861;-66
2021/01/25 10:05:51;;;;;;;17.13;16.07;;;5.10;99.90;;;;;;5013807;28;20446;-66
2021/01/25 10:08:17;;;;;;;17.87;16.57;;;5.30;99.90;;;;;;5013729;28;20470;-66
2021/01/25 10:10:44;;;;;;;18.40;17.20;;;5.50;99.90;;;;;;5013471;28;20543;-66
2021/01/25 10:13:10;;;;;;;20.47;18.77;;;5.80;99.90;;;;;;5013585;28;20442;-66
2021/01/25 10:15:36;;;;;;;19.73;18.50;;;5.90;99.90;;;;;;5013658;28;20453;-66
2021/01/25 10:18:02;;;;;;;21.33;19.70;;;6.10;99.90;;;;;;5013557;28;20958;-66
2021/01/25 10:20:29;;;;;;;20.40;18.90;;;6.10;99.90;;;;;;5013305;28;20470;-66
2021/01/25 10:22:55;;;;;;;19.37;18.17;;;5.60;99.90;;;;;;5013391;28;20528;-66
2021/01/25 10:25:22;;;;;;;17.53;16.43;;;5.40;99.90;;;;;;5013423;28;20446;-66
2021/01/25 10:27:49;;;;;;;19.73;18.33;;;4.80;99.90;;;;;;5013442;28;20446;-66
2021/01/25 10:30:17;;;;;;;18.70;17.40;;;4.60;99.90;;;;;;5013153;28;20466;-66
2021/01/25 10:32:44;;;;;;;19.63;16.97;;;4.70;99.90;;;;;;5013135;28;20939;-66
2021/01/25 10:35:11;;;;;;;18.67;17.50;;;4.90;99.90;;;;;;5013273;28;20450;-66
2021/01/25 10:37:38;;;;;;;19.73;18.07;;;5.10;99.90;;;;;;5012850;28;20458;-66
2021/01/25 10:40:06;;;;;;;19.77;18.40;;;5.20;99.90;;;;;;5012625;28;20979;-66
2021/01/25 10:42:32;;;;;;;19.53;18.23;;;5.10;99.90;;;;;;5013382;28;20480;-66
2021/01/25 10:44:59;;;;;;;19.20;17.93;;;5.30;99.90;;;;;;5013367;28;20450;-68
2021/01/25 10:47:25;;;;;;;18.53;17.13;;;5.00;99.90;;;;;;5013102;28;20450;-66
2021/01/25 10:49:52;;;;;;;18.80;17.50;;;4.90;99.90;;;;;;5012712;28;20457;-67
2021/01/25 10:52:19;;;;;;;18.07;16.77;;;4.60;99.90;;;;;;5012927;28;20445;-66
2021/01/25 10:54:45;;;;;;;18.07;16.87;;;4.40;99.90;;;;;;5012895;28;20508;-67
2021/01/25 10:57:14;;;;;;;18.90;17.50;;;4.30;99.90;;;;;;5012878;28;20962;-67
2021/01/25 10:59:40;;;;;;;21.08;19.38;;;4.40;99.90;;;;;;5011396;28;20443;-66
2021/01/25 11:02:08;;;;;;;20.93;19.40;;;4.50;99.90;;;;;;5012057;28;20230;-66
2021/01/25 11:04:34;;;;;;;20.83;19.27;;;4.60;99.90;;;;;;5012660;28;20446;-67
2021/01/25 11:07:01;;;;;;;20.50;19.20;;;4.70;99.90;;;;;;5012780;28;20445;-66
2021/01/25 11:09:28;;;;;;;22.07;20.27;;;4.70;99.90;;;;;;5012614;28;20838;-68
2021/01/25 11:11:54;;;;;;;21.40;19.70;;;4.60;99.90;;;;;;5012227;28;20474;-67
2021/01/25 11:14:20;;;;;;;20.03;18.73;;;4.70;99.90;;;;;;5012301;28;20438;-67
2021/01/25 11:16:47;;;;;;;19.30;18.10;;;5.00;99.90;;;;;;5012558;28;20441;-68
2021/01/25 11:19:14;;;;;;;20.40;19.00;;;5.10;99.90;;;;;;5012517;28;20465;-67
2021/01/25 11:21:40;;;;;;;22.30;20.80;;;5.20;99.90;;;;;;5012008;28;20501;-67
2021/01/25 11:24:07;;;;;;;19.87;18.47;;;5.00;99.90;;;;;;5012364;28;20498;-67
2021/01/25 11:26:37;;;;;;;21.50;19.90;;;4.80;99.90;;;;;;5012311;28;20461;-67
2021/01/25 11:29:04;;;;;;;18.77;17.50;;;4.80;99.90;;;;;;5012695;28;20799;-67
2021/01/25 11:31:30;;;;;;;21.17;19.77;;;4.90;99.90;;;;;;5011987;28;20465;-67
2021/01/25 11:33:56;;;;;;;20.70;19.30;;;5.00;99.90;;;;;;5012322;28;20446;-67
2021/01/25 11:36:24;;;;;;;21.10;19.80;;;5.40;99.90;;;;;;5012341;28;20449;-67
2021/01/25 11:38:50;;;;;;;21.17;19.60;;;5.50;99.90;;;;;;5012142;28;21008;-67
2021/01/25 11:41:16;;;;;;;21.87;20.40;;;5.50;99.90;;;;;;5011548;28;20494;-67
2021/01/25 11:43:42;;;;;;;21.63;19.90;;;5.50;99.90;;;;;;5012004;28;20453;-67
2021/01/25 11:46:09;;;;;;;21.90;20.27;;;5.60;99.90;;;;;;5012008;28;20935;-67
2021/01/25 11:48:35;;;;;;;24.00;22.17;;;5.50;99.90;;;;;;5012006;28;20504;-67
2021/01/25 11:51:01;;;;;;;24.77;22.90;;;5.70;99.90;;;;;;5011805;28;20462;-67
2021/01/25 11:53:30;;;;;;;25.67;23.47;;;5.70;99.90;;;;;;5012061;28;20454;-67
2021/01/25 11:55:56;;;;;;;24.30;22.53;;;5.70;99.90;;;;;;5012030;28;20446;-67
2021/01/25 11:58:23;;;;;;;27.60;25.30;;;5.80;99.90;;;;;;5015698;28;20446;-67
2021/01/25 12:00:49;;;;;;;26.90;24.80;;;6.00;99.90;;;;;;5017892;28;20719;-67
2021/01/25 12:03:15;;;;;;;28.73;26.07;;;6.40;99.90;;;;;;5018364;28;21082;-67
2021/01/25 12:05:41;;;;;;;28.80;26.50;;;6.80;99.90;;;;;;5017951;28;20500;-68
2021/01/25 12:08:07;;;;;;;27.90;25.60;;;7.60;99.90;;;;;;5011675;28;20446;-68
2021/01/25 12:10:34;;;;;;;28.97;26.47;;;7.50;99.90;;;;;;5011551;28;20468;-68
2021/01/25 12:13:01;;;;;;;31.27;28.90;;;7.30;99.90;;;;;;5010753;28;20449;-67
2021/01/25 12:15:27;;;;;;;29.67;27.27;;;7.50;99.90;;;;;;5011669;28;20446;-67
2021/01/25 12:17:53;;;;;;;30.97;28.10;;;7.00;99.90;;;;;;5011646;28;20461;-67
2021/01/25 12:20:19;;;;;;;29.70;27.50;;;7.00;99.90;;;;;;5011366;28;21001;-68
2021/01/25 12:22:45;;;;;;;28.60;26.20;;;7.80;99.90;;;;;;5011493;28;20485;-67
2021/01/25 12:25:13;;;;;;;30.20;27.63;;;8.20;98.30;;;;;;5011514;28;20450;-67
2021/01/25 12:27:40;;;;;;;28.33;25.83;;;7.20;97.10;;;;;;5011596;28;20457;-67
2021/01/25 12:30:07;;;;;;;31.10;28.20;;;6.90;98.00;;;;;;5011327;28;20461;-67
2021/01/25 12:32:34;;;;;;;29.87;27.20;;;7.20;99.40;;;;;;5011481;28;20445;-67
2021/01/25 12:35:00;;;;;;;30.67;27.97;;;8.40;96.70;;;;;;5011326;28;20454;-67
2021/01/25 12:37:27;;;;;;;31.77;29.00;;;9.20;93.90;;;;;;5011426;28;20504;-67
2021/01/25 12:39:53;;;;;;;32.33;29.50;;;9.60;91.50;;;;;;5011150;28;20965;-67
2021/01/25 12:42:19;;;;;;;33.67;30.40;;;10.30;87.50;;;;;;5011596;28;21060;-68